sensor_id;sensor_type;location;lat;lon;timestamp;P1;durP1;ratioP1;P2;durP2;ratioP2
52708;SDS011;38606;52.986;6.980;2024-02-15T00:01:23;52.08;;;25.02;;
52708;SDS011;38606;52.986;6.980;2024-02-15T00:03:48;56.40;;;24.48;;
52708;SDS011;38606;52.986;6.980;2024-02-15T00:06:14;56.67;;;25.85;;
52708;SDS011;38606;52.986;6.980;2024-02-15T00:08:40;60.17;;;25.75;;
52708;SDS011;38606;52.986;6.980;2024-02-15T00:11:06;61.83;;;27.15;;
52708;SDS011;38606;52.986;6.980;2024-02-15T00:13:34;59.97;;;25.48;;
52708;SDS011;38606;52.986;6.980;2024-02-15T00:16:01;59.17;;;27.05;;
52708;SDS011;38606;52.986;6.980;2024-02-15T00:18:27;58.80;;;25.92;;
52708;SDS011;38606;52.986;6.980;2024-02-15T00:20:52;57.72;;;26.48;;
52708;SDS011;38606;52.986;6.980;2024-02-15T00:23:18;61.38;;;26.45;;
52708;SDS011;38606;52.986;6.980;2024-02-15T00:25:44;62.83;;;25.80;;
52708;SDS011;38606;52.986;6.980;2024-02-15T00:28:13;56.65;;;25.50;;
52708;SDS011;38606;52.986;6.980;2024-02-15T00:30:38;57.22;;;26.15;;
52708;SDS011;38606;52.986;6.980;2024-02-15T00:33:04;60.10;;;25.70;;
52708;SDS011;38606;52.986;6.980;2024-02-15T00:35:30;58.40;;;24.13;;
52708;SDS011;38606;52.986;6.980;2024-02-15T00:37:56;56.88;;;24.20;;
52708;SDS011;38606;52.986;6.980;2024-02-15T00:40:22;52.65;;;23.35;;
52708;SDS011;38606;52.986;6.980;2024-02-15T00:42:48;49.10;;;23.38;;
52708;SDS011;38606;52.986;6.980;2024-02-15T00:45:13;49.65;;;22.30;;
52708;SDS011;38606;52.986;6.980;2024-02-15T00:47:39;55.53;;;22.42;;
52708;SDS011;38606;52.986;6.980;2024-02-15T00:50:07;51.70;;;21.15;;
52708;SDS011;38606;52.986;6.980;2024-02-15T00:52:33;52.47;;;21.10;;
52708;SDS011;38606;52.986;6.980;2024-02-15T00:54:59;41.60;;;20.50;;
52708;SDS011;38606;52.986;6.980;2024-02-15T00:57:25;45.75;;;20.45;;
52708;SDS011;38606;52.986;6.980;2024-02-15T00:59:50;49.35;;;20.67;;
52708;SDS011;38606;52.986;6.980;2024-02-15T01:02:17;48.55;;;20.42;;
52708;SDS011;38606;52.986;6.980;2024-02-15T01:04:43;49.75;;;20.75;;
52708;SDS011;38606;52.986;6.980;2024-02-15T01:07:10;55.50;;;20.90;;
52708;SDS011;38606;52.986;6.980;2024-02-15T01:09:36;46.28;;;19.92;;
52708;SDS011;38606;52.986;6.980;2024-02-15T01:12:02;39.92;;;17.10;;
52708;SDS011;38606;52.986;6.980;2024-02-15T01:14:29;45.72;;;18.45;;
52708;SDS011;38606;52.986;6.980;2024-02-15T01:16:55;41.30;;;18.85;;
52708;SDS011;38606;52.986;6.980;2024-02-15T01:19:22;39.88;;;18.23;;
52708;SDS011;38606;52.986;6.980;2024-02-15T01:21:47;37.40;;;17.35;;
52708;SDS011;38606;52.986;6.980;2024-02-15T01:24:13;35.17;;;17.58;;
52708;SDS011;38606;52.986;6.980;2024-02-15T01:26:39;42.15;;;18.73;;
52708;SDS011;38606;52.986;6.980;2024-02-15T01:29:05;41.70;;;18.27;;
52708;SDS011;38606;52.986;6.980;2024-02-15T01:31:31;36.00;;;17.45;;
52708;SDS011;38606;52.986;6.980;2024-02-15T01:33:56;43.67;;;17.65;;
52708;SDS011;38606;52.986;6.980;2024-02-15T01:36:22;34.42;;;16.10;;
52708;SDS011;38606;52.986;6.980;2024-02-15T01:38:48;41.88;;;17.20;;
52708;SDS011;38606;52.986;6.980;2024-02-15T01:41:13;34.78;;;16.15;;
52708;SDS011;38606;52.986;6.980;2024-02-15T01:43:48;40.45;;;16.27;;
52708;SDS011;38606;52.986;6.980;2024-02-15T01:46:15;42.70;;;16.65;;
52708;SDS011;38606;52.986;6.980;2024-02-15T01:48:41;42.03;;;17.10;;
52708;SDS011;38606;52.986;6.980;2024-02-15T01:51:08;53.55;;;19.35;;
52708;SDS011;38606;52.986;6.980;2024-02-15T01:53:35;39.35;;;17.10;;
52708;SDS011;38606;52.986;6.980;2024-02-15T01:56:02;41.92;;;17.60;;
52708;SDS011;38606;52.986;6.980;2024-02-15T01:58:28;44.08;;;17.73;;
52708;SDS011;38606;52.986;6.980;2024-02-15T02:00:57;40.70;;;17.98;;
52708;SDS011;38606;52.986;6.980;2024-02-15T02:03:24;39.38;;;16.73;;
52708;SDS011;38606;52.986;6.980;2024-02-15T02:05:50;41.03;;;17.88;;
52708;SDS011;38606;52.986;6.980;2024-02-15T02:08:16;44.15;;;18.45;;
52708;SDS011;38606;52.986;6.980;2024-02-15T02:10:41;55.05;;;19.52;;
52708;SDS011;38606;52.986;6.980;2024-02-15T02:13:08;48.10;;;19.10;;
52708;SDS011;38606;52.986;6.980;2024-02-15T02:15:35;53.08;;;19.65;;
52708;SDS011;38606;52.986;6.980;2024-02-15T02:18:02;52.30;;;19.33;;
52708;SDS011;38606;52.986;6.980;2024-02-15T02:20:32;52.45;;;19.02;;
52708;SDS011;38606;52.986;6.980;2024-02-15T02:23:15;56.50;;;19.85;;
52708;SDS011;38606;52.986;6.980;2024-02-15T02:25:45;47.63;;;19.85;;
52708;SDS011;38606;52.986;6.980;2024-02-15T02:28:14;46.20;;;18.80;;
52708;SDS011;38606;52.986;6.980;2024-02-15T02:30:41;60.53;;;20.25;;
52708;SDS011;38606;52.986;6.980;2024-02-15T02:33:13;54.90;;;20.13;;
52708;SDS011;38606;52.986;6.980;2024-02-15T02:35:47;50.70;;;18.38;;
52708;SDS011;38606;52.986;6.980;2024-02-15T02:38:13;44.28;;;18.13;;
52708;SDS011;38606;52.986;6.980;2024-02-15T02:40:39;49.80;;;17.90;;
52708;SDS011;38606;52.986;6.980;2024-02-15T02:43:06;42.78;;;17.33;;
52708;SDS011;38606;52.986;6.980;2024-02-15T02:45:32;45.85;;;17.92;;
52708;SDS011;38606;52.986;6.980;2024-02-15T02:47:57;44.45;;;17.08;;
52708;SDS011;38606;52.986;6.980;2024-02-15T02:50:23;51.28;;;17.75;;
52708;SDS011;38606;52.986;6.980;2024-02-15T02:52:49;48.30;;;16.80;;
52708;SDS011;38606;52.986;6.980;2024-02-15T02:55:15;46.72;;;17.25;;
52708;SDS011;38606;52.986;6.980;2024-02-15T02:57:41;45.90;;;18.17;;
52708;SDS011;38606;52.986;6.980;2024-02-15T03:00:09;43.15;;;17.90;;
52708;SDS011;38606;52.986;6.980;2024-02-15T03:02:40;48.53;;;17.20;;
52708;SDS011;38606;52.986;6.980;2024-02-15T03:05:07;45.42;;;17.90;;
52708;SDS011;38606;52.986;6.980;2024-02-15T03:07:34;40.15;;;17.83;;
52708;SDS011;38606;52.986;6.980;2024-02-15T03:10:01;48.05;;;17.33;;
52708;SDS011;38606;52.986;6.980;2024-02-15T03:12:29;48.83;;;17.58;;
52708;SDS011;38606;52.986;6.980;2024-02-15T03:14:55;44.50;;;16.77;;
52708;SDS011;38606;52.986;6.980;2024-02-15T03:17:24;43.13;;;17.30;;
52708;SDS011;38606;52.986;6.980;2024-02-15T03:19:51;43.63;;;17.15;;
52708;SDS011;38606;52.986;6.980;2024-02-15T03:22:17;46.53;;;15.90;;
52708;SDS011;38606;52.986;6.980;2024-02-15T03:24:42;44.35;;;16.42;;
52708;SDS011;38606;52.986;6.980;2024-02-15T03:27:08;34.63;;;15.90;;
52708;SDS011;38606;52.986;6.980;2024-02-15T03:29:40;44.92;;;15.75;;
52708;SDS011;38606;52.986;6.980;2024-02-15T03:32:06;37.83;;;15.82;;
52708;SDS011;38606;52.986;6.980;2024-02-15T03:34:32;39.35;;;15.13;;
52708;SDS011;38606;52.986;6.980;2024-02-15T03:36:57;41.80;;;15.25;;
52708;SDS011;38606;52.986;6.980;2024-02-15T03:39:23;38.35;;;13.07;;
52708;SDS011;38606;52.986;6.980;2024-02-15T03:41:50;38.83;;;14.27;;
52708;SDS011;38606;52.986;6.980;2024-02-15T03:44:16;40.40;;;14.18;;
52708;SDS011;38606;52.986;6.980;2024-02-15T03:46:43;38.28;;;13.57;;
52708;SDS011;38606;52.986;6.980;2024-02-15T03:49:15;35.43;;;14.10;;
52708;SDS011;38606;52.986;6.980;2024-02-15T03:51:42;38.30;;;14.48;;
52708;SDS011;38606;52.986;6.980;2024-02-15T03:54:08;38.13;;;14.48;;
52708;SDS011;38606;52.986;6.980;2024-02-15T03:56:34;38.85;;;15.05;;
52708;SDS011;38606;52.986;6.980;2024-02-15T03:59:01;45.78;;;15.82;;
52708;SDS011;38606;52.986;6.980;2024-02-15T04:01:30;39.45;;;16.10;;
52708;SDS011;38606;52.986;6.980;2024-02-15T04:03:59;50.95;;;18.75;;
52708;SDS011;38606;52.986;6.980;2024-02-15T04:06:25;54.30;;;17.48;;
52708;SDS011;38606;52.986;6.980;2024-02-15T04:08:53;39.65;;;19.08;;
52708;SDS011;38606;52.986;6.980;2024-02-15T04:11:19;51.38;;;19.45;;
52708;SDS011;38606;52.986;6.980;2024-02-15T04:13:45;47.45;;;18.27;;
52708;SDS011;38606;52.986;6.980;2024-02-15T04:16:10;46.00;;;19.15;;
52708;SDS011;38606;52.986;6.980;2024-02-15T04:18:36;46.70;;;19.45;;
52708;SDS011;38606;52.986;6.980;2024-02-15T04:21:03;42.42;;;19.73;;
52708;SDS011;38606;52.986;6.980;2024-02-15T04:23:31;50.95;;;21.55;;
52708;SDS011;38606;52.986;6.980;2024-02-15T04:25:57;44.13;;;20.88;;
52708;SDS011;38606;52.986;6.980;2024-02-15T04:28:25;40.63;;;22.20;;
52708;SDS011;38606;52.986;6.980;2024-02-15T04:30:52;48.20;;;22.58;;
52708;SDS011;38606;52.986;6.980;2024-02-15T04:33:17;50.90;;;23.17;;
52708;SDS011;38606;52.986;6.980;2024-02-15T04:35:44;52.25;;;22.75;;
52708;SDS011;38606;52.986;6.980;2024-02-15T04:38:10;45.97;;;22.60;;
52708;SDS011;38606;52.986;6.980;2024-02-15T04:40:35;49.40;;;23.33;;
52708;SDS011;38606;52.986;6.980;2024-02-15T04:43:03;50.63;;;23.35;;
52708;SDS011;38606;52.986;6.980;2024-02-15T04:45:29;47.75;;;23.52;;
52708;SDS011;38606;52.986;6.980;2024-02-15T04:47:56;47.05;;;24.02;;
52708;SDS011;38606;52.986;6.980;2024-02-15T04:50:22;48.58;;;23.30;;
52708;SDS011;38606;52.986;6.980;2024-02-15T04:52:47;49.55;;;24.20;;
52708;SDS011;38606;52.986;6.980;2024-02-15T04:55:14;56.95;;;24.52;;
52708;SDS011;38606;52.986;6.980;2024-02-15T04:57:41;50.00;;;23.98;;
52708;SDS011;38606;52.986;6.980;2024-02-15T05:00:06;52.83;;;24.73;;
52708;SDS011;38606;52.986;6.980;2024-02-15T05:02:38;60.33;;;25.38;;
52708;SDS011;38606;52.986;6.980;2024-02-15T05:05:08;46.67;;;24.10;;
52708;SDS011;38606;52.986;6.980;2024-02-15T05:07:34;49.20;;;24.48;;
52708;SDS011;38606;52.986;6.980;2024-02-15T05:10:03;59.78;;;25.27;;
52708;SDS011;38606;52.986;6.980;2024-02-15T05:12:31;51.75;;;24.80;;
52708;SDS011;38606;52.986;6.980;2024-02-15T05:14:58;56.53;;;26.30;;
52708;SDS011;38606;52.986;6.980;2024-02-15T05:17:24;55.28;;;25.08;;
52708;SDS011;38606;52.986;6.980;2024-02-15T05:19:50;53.72;;;25.42;;
52708;SDS011;38606;52.986;6.980;2024-02-15T05:22:15;54.90;;;25.58;;
52708;SDS011;38606;52.986;6.980;2024-02-15T05:24:42;49.65;;;26.10;;
52708;SDS011;38606;52.986;6.980;2024-02-15T05:27:07;50.50;;;25.33;;
52708;SDS011;38606;52.986;6.980;2024-02-15T05:29:33;52.13;;;25.58;;
52708;SDS011;38606;52.986;6.980;2024-02-15T05:32:00;59.33;;;25.92;;
52708;SDS011;38606;52.986;6.980;2024-02-15T05:34:26;50.97;;;25.52;;
52708;SDS011;38606;52.986;6.980;2024-02-15T05:36:54;57.95;;;25.40;;
52708;SDS011;38606;52.986;6.980;2024-02-15T05:39:20;63.22;;;26.15;;
52708;SDS011;38606;52.986;6.980;2024-02-15T05:41:47;50.97;;;25.80;;
52708;SDS011;38606;52.986;6.980;2024-02-15T05:44:13;53.63;;;25.23;;
52708;SDS011;38606;52.986;6.980;2024-02-15T05:46:44;50.35;;;25.52;;
52708;SDS011;38606;52.986;6.980;2024-02-15T05:49:10;51.53;;;27.02;;
52708;SDS011;38606;52.986;6.980;2024-02-15T05:51:40;57.63;;;27.10;;
52708;SDS011;38606;52.986;6.980;2024-02-15T05:54:06;55.92;;;27.17;;
52708;SDS011;38606;52.986;6.980;2024-02-15T05:56:32;58.70;;;28.50;;
52708;SDS011;38606;52.986;6.980;2024-02-15T05:58:58;51.58;;;27.90;;
52708;SDS011;38606;52.986;6.980;2024-02-15T06:01:24;53.78;;;28.23;;
52708;SDS011;38606;52.986;6.980;2024-02-15T06:03:50;52.88;;;27.45;;
52708;SDS011;38606;52.986;6.980;2024-02-15T06:06:19;55.80;;;27.83;;
52708;SDS011;38606;52.986;6.980;2024-02-15T06:08:46;56.22;;;28.10;;
52708;SDS011;38606;52.986;6.980;2024-02-15T06:11:13;53.53;;;28.30;;
52708;SDS011;38606;52.986;6.980;2024-02-15T06:13:45;53.63;;;29.05;;
52708;SDS011;38606;52.986;6.980;2024-02-15T06:16:11;51.38;;;27.40;;
52708;SDS011;38606;52.986;6.980;2024-02-15T06:18:36;51.53;;;28.05;;
52708;SDS011;38606;52.986;6.980;2024-02-15T06:21:02;50.38;;;28.00;;
52708;SDS011;38606;52.986;6.980;2024-02-15T06:23:28;52.08;;;28.88;;
52708;SDS011;38606;52.986;6.980;2024-02-15T06:25:55;49.38;;;26.40;;
52708;SDS011;38606;52.986;6.980;2024-02-15T06:28:23;59.15;;;28.48;;
52708;SDS011;38606;52.986;6.980;2024-02-15T06:31:07;48.28;;;27.15;;
52708;SDS011;38606;52.986;6.980;2024-02-15T06:33:53;50.83;;;26.70;;
52708;SDS011;38606;52.986;6.980;2024-02-15T06:36:46;49.53;;;26.30;;
52708;SDS011;38606;52.986;6.980;2024-02-15T06:39:36;46.78;;;25.40;;
52708;SDS011;38606;52.986;6.980;2024-02-15T06:42:08;55.67;;;27.02;;
52708;SDS011;38606;52.986;6.980;2024-02-15T06:44:35;48.17;;;25.38;;
52708;SDS011;38606;52.986;6.980;2024-02-15T06:47:01;48.13;;;26.95;;
52708;SDS011;38606;52.986;6.980;2024-02-15T06:49:27;50.03;;;25.58;;
52708;SDS011;38606;52.986;6.980;2024-02-15T06:51:52;48.35;;;24.30;;
52708;SDS011;38606;52.986;6.980;2024-02-15T06:54:18;47.90;;;23.42;;
52708;SDS011;38606;52.986;6.980;2024-02-15T06:56:44;48.88;;;22.98;;
52708;SDS011;38606;52.986;6.980;2024-02-15T06:59:11;40.67;;;23.02;;
52708;SDS011;38606;52.986;6.980;2024-02-15T07:01:42;42.15;;;23.30;;
52708;SDS011;38606;52.986;6.980;2024-02-15T07:04:09;41.97;;;22.02;;
52708;SDS011;38606;52.986;6.980;2024-02-15T07:06:37;38.47;;;21.42;;
52708;SDS011;38606;52.986;6.980;2024-02-15T07:09:04;42.28;;;23.13;;
52708;SDS011;38606;52.986;6.980;2024-02-15T07:11:33;43.08;;;22.73;;
52708;SDS011;38606;52.986;6.980;2024-02-15T07:14:01;42.88;;;21.70;;
52708;SDS011;38606;52.986;6.980;2024-02-15T07:16:29;44.95;;;22.10;;
52708;SDS011;38606;52.986;6.980;2024-02-15T07:18:55;42.20;;;20.98;;
52708;SDS011;38606;52.986;6.980;2024-02-15T07:21:21;42.83;;;20.77;;
52708;SDS011;38606;52.986;6.980;2024-02-15T07:23:52;41.00;;;19.30;;
52708;SDS011;38606;52.986;6.980;2024-02-15T07:26:20;44.65;;;20.75;;
52708;SDS011;38606;52.986;6.980;2024-02-15T07:28:49;34.95;;;18.70;;
52708;SDS011;38606;52.986;6.980;2024-02-15T07:31:17;43.28;;;19.65;;
52708;SDS011;38606;52.986;6.980;2024-02-15T07:33:43;36.90;;;18.58;;
52708;SDS011;38606;52.986;6.980;2024-02-15T07:36:09;40.85;;;20.63;;
52708;SDS011;38606;52.986;6.980;2024-02-15T07:38:34;37.95;;;19.10;;
52708;SDS011;38606;52.986;6.980;2024-02-15T07:41:00;35.53;;;18.88;;
52708;SDS011;38606;52.986;6.980;2024-02-15T07:43:26;35.42;;;18.38;;
52708;SDS011;38606;52.986;6.980;2024-02-15T07:45:52;40.55;;;19.75;;
52708;SDS011;38606;52.986;6.980;2024-02-15T07:48:18;41.80;;;20.23;;
52708;SDS011;38606;52.986;6.980;2024-02-15T07:50:44;33.22;;;18.17;;
52708;SDS011;38606;52.986;6.980;2024-02-15T07:53:13;38.10;;;19.52;;
52708;SDS011;38606;52.986;6.980;2024-02-15T07:55:39;42.03;;;19.52;;
52708;SDS011;38606;52.986;6.980;2024-02-15T07:58:07;34.92;;;18.45;;
52708;SDS011;38606;52.986;6.980;2024-02-15T08:00:32;38.88;;;19.02;;
52708;SDS011;38606;52.986;6.980;2024-02-15T08:02:58;40.28;;;19.75;;
52708;SDS011;38606;52.986;6.980;2024-02-15T08:05:24;36.58;;;17.08;;
52708;SDS011;38606;52.986;6.980;2024-02-15T08:07:50;35.30;;;17.95;;
52708;SDS011;38606;52.986;6.980;2024-02-15T08:10:15;40.15;;;18.88;;
52708;SDS011;38606;52.986;6.980;2024-02-15T08:12:45;37.30;;;19.08;;
52708;SDS011;38606;52.986;6.980;2024-02-15T08:15:12;34.83;;;17.98;;
52708;SDS011;38606;52.986;6.980;2024-02-15T08:17:41;41.25;;;19.63;;
52708;SDS011;38606;52.986;6.980;2024-02-15T08:20:09;29.73;;;17.45;;
52708;SDS011;38606;52.986;6.980;2024-02-15T08:22:36;36.30;;;19.27;;
52708;SDS011;38606;52.986;6.980;2024-02-15T08:25:07;36.35;;;18.45;;
52708;SDS011;38606;52.986;6.980;2024-02-15T08:27:37;28.10;;;18.17;;
52708;SDS011;38606;52.986;6.980;2024-02-15T08:30:11;32.10;;;18.13;;
52708;SDS011;38606;52.986;6.980;2024-02-15T08:32:41;32.05;;;16.92;;
52708;SDS011;38606;52.986;6.980;2024-02-15T08:35:11;29.63;;;17.60;;
52708;SDS011;38606;52.986;6.980;2024-02-15T08:37:38;31.20;;;17.60;;
52708;SDS011;38606;52.986;6.980;2024-02-15T08:40:05;29.77;;;16.75;;
52708;SDS011;38606;52.986;6.980;2024-02-15T08:42:39;31.08;;;17.95;;
52708;SDS011;38606;52.986;6.980;2024-02-15T08:45:06;36.30;;;18.42;;
52708;SDS011;38606;52.986;6.980;2024-02-15T08:47:36;28.73;;;18.15;;
52708;SDS011;38606;52.986;6.980;2024-02-15T08:50:03;36.50;;;20.25;;
52708;SDS011;38606;52.986;6.980;2024-02-15T08:52:29;37.75;;;19.15;;
52708;SDS011;38606;52.986;6.980;2024-02-15T08:54:54;24.08;;;15.90;;
52708;SDS011;38606;52.986;6.980;2024-02-15T08:57:22;23.50;;;15.05;;
52708;SDS011;38606;52.986;6.980;2024-02-15T08:59:49;25.88;;;15.05;;
52708;SDS011;38606;52.986;6.980;2024-02-15T09:02:17;22.70;;;15.13;;
52708;SDS011;38606;52.986;6.980;2024-02-15T09:04:46;22.02;;;15.35;;
52708;SDS011;38606;52.986;6.980;2024-02-15T09:07:11;29.33;;;15.23;;
52708;SDS011;38606;52.986;6.980;2024-02-15T09:09:37;29.02;;;17.30;;
52708;SDS011;38606;52.986;6.980;2024-02-15T09:12:03;30.98;;;16.13;;
52708;SDS011;38606;52.986;6.980;2024-02-15T09:14:33;24.27;;;15.98;;
52708;SDS011;38606;52.986;6.980;2024-02-15T09:17:01;28.33;;;17.15;;
52708;SDS011;38606;52.986;6.980;2024-02-15T09:19:32;28.05;;;17.02;;
52708;SDS011;38606;52.986;6.980;2024-02-15T09:21:58;25.35;;;15.68;;
52708;SDS011;38606;52.986;6.980;2024-02-15T09:24:24;25.25;;;15.32;;
52708;SDS011;38606;52.986;6.980;2024-02-15T09:26:50;25.48;;;15.85;;
52708;SDS011;38606;52.986;6.980;2024-02-15T09:29:17;25.60;;;14.55;;
52708;SDS011;38606;52.986;6.980;2024-02-15T09:31:46;24.02;;;14.57;;
52708;SDS011;38606;52.986;6.980;2024-02-15T09:34:14;24.98;;;15.20;;
52708;SDS011;38606;52.986;6.980;2024-02-15T09:36:40;24.27;;;14.20;;
52708;SDS011;38606;52.986;6.980;2024-02-15T09:39:05;26.52;;;14.73;;
52708;SDS011;38606;52.986;6.980;2024-02-15T09:41:32;23.83;;;14.45;;
52708;SDS011;38606;52.986;6.980;2024-02-15T09:44:01;26.13;;;14.73;;
52708;SDS011;38606;52.986;6.980;2024-02-15T09:46:28;28.42;;;15.02;;
52708;SDS011;38606;52.986;6.980;2024-02-15T09:49:00;23.63;;;14.50;;
52708;SDS011;38606;52.986;6.980;2024-02-15T09:51:28;26.83;;;14.23;;
52708;SDS011;38606;52.986;6.980;2024-02-15T09:53:56;28.50;;;15.70;;
52708;SDS011;38606;52.986;6.980;2024-02-15T09:56:23;24.98;;;14.60;;
52708;SDS011;38606;52.986;6.980;2024-02-15T09:58:51;20.60;;;14.68;;
52708;SDS011;38606;52.986;6.980;2024-02-15T10:01:17;25.27;;;14.75;;
52708;SDS011;38606;52.986;6.980;2024-02-15T10:03:47;19.25;;;12.93;;
52708;SDS011;38606;52.986;6.980;2024-02-15T10:06:16;21.08;;;13.02;;
52708;SDS011;38606;52.986;6.980;2024-02-15T10:08:43;24.25;;;14.18;;
52708;SDS011;38606;52.986;6.980;2024-02-15T10:11:09;18.30;;;13.32;;
52708;SDS011;38606;52.986;6.980;2024-02-15T10:13:36;19.52;;;13.85;;
52708;SDS011;38606;52.986;6.980;2024-02-15T10:16:15;18.88;;;12.95;;
52708;SDS011;38606;52.986;6.980;2024-02-15T10:18:42;15.50;;;11.38;;
52708;SDS011;38606;52.986;6.980;2024-02-15T10:21:08;18.80;;;13.48;;
52708;SDS011;38606;52.986;6.980;2024-02-15T10:23:34;15.25;;;11.52;;
52708;SDS011;38606;52.986;6.980;2024-02-15T10:25:59;21.25;;;13.75;;
52708;SDS011;38606;52.986;6.980;2024-02-15T10:28:27;18.75;;;11.93;;
52708;SDS011;38606;52.986;6.980;2024-02-15T10:30:54;17.38;;;13.27;;
52708;SDS011;38606;52.986;6.980;2024-02-15T10:33:26;13.73;;;11.13;;
52708;SDS011;38606;52.986;6.980;2024-02-15T10:36:06;15.52;;;9.55;;
52708;SDS011;38606;52.986;6.980;2024-02-15T10:38:36;13.50;;;9.65;;
52708;SDS011;38606;52.986;6.980;2024-02-15T10:41:05;14.02;;;9.07;;
52708;SDS011;38606;52.986;6.980;2024-02-15T10:43:35;13.00;;;9.45;;
52708;SDS011;38606;52.986;6.980;2024-02-15T10:46:04;11.53;;;8.33;;
52708;SDS011;38606;52.986;6.980;2024-02-15T10:48:34;14.80;;;8.73;;
52708;SDS011;38606;52.986;6.980;2024-02-15T10:51:01;13.50;;;8.23;;
52708;SDS011;38606;52.986;6.980;2024-02-15T10:53:32;9.10;;;8.07;;
52708;SDS011;38606;52.986;6.980;2024-02-15T10:58:47;10.20;;;7.85;;
52708;SDS011;38606;52.986;6.980;2024-02-15T11:01:16;10.90;;;7.80;;
52708;SDS011;38606;52.986;6.980;2024-02-15T11:03:57;13.10;;;7.50;;
52708;SDS011;38606;52.986;6.980;2024-02-15T11:06:28;8.38;;;6.85;;
52708;SDS011;38606;52.986;6.980;2024-02-15T11:08:58;11.48;;;7.25;;
52708;SDS011;38606;52.986;6.980;2024-02-15T11:11:25;10.93;;;7.30;;
52708;SDS011;38606;52.986;6.980;2024-02-15T11:14:22;8.15;;;6.80;;
52708;SDS011;38606;52.986;6.980;2024-02-15T11:16:50;8.23;;;6.40;;
52708;SDS011;38606;52.986;6.980;2024-02-15T11:22:00;9.70;;;6.50;;
52708;SDS011;38606;52.986;6.980;2024-02-15T11:24:32;7.25;;;6.50;;
52708;SDS011;38606;52.986;6.980;2024-02-15T11:27:01;8.30;;;6.35;;
52708;SDS011;38606;52.986;6.980;2024-02-15T11:35:05;9.48;;;6.18;;
52708;SDS011;38606;52.986;6.980;2024-02-15T12:48:08;3.90;;;3.50;;
52708;SDS011;38606;52.986;6.980;2024-02-15T12:50:34;5.28;;;3.10;;
52708;SDS011;38606;52.986;6.980;2024-02-15T12:53:00;3.80;;;3.40;;
52708;SDS011;38606;52.986;6.980;2024-02-15T12:55:34;4.25;;;3.47;;
52708;SDS011;38606;52.986;6.980;2024-02-15T12:58:02;6.82;;;3.80;;
52708;SDS011;38606;52.986;6.980;2024-02-15T13:00:35;4.30;;;3.55;;
52708;SDS011;38606;52.986;6.980;2024-02-15T13:03:04;4.43;;;3.38;;
52708;SDS011;38606;52.986;6.980;2024-02-15T13:05:34;4.32;;;3.53;;
52708;SDS011;38606;52.986;6.980;2024-02-15T13:08:01;5.43;;;3.83;;
52708;SDS011;38606;52.986;6.980;2024-02-15T13:10:27;6.13;;;4.38;;
52708;SDS011;38606;52.986;6.980;2024-02-15T13:12:54;7.22;;;4.18;;
52708;SDS011;38606;52.986;6.980;2024-02-15T13:15:21;6.57;;;4.25;;
52708;SDS011;38606;52.986;6.980;2024-02-15T13:17:52;6.10;;;4.22;;
52708;SDS011;38606;52.986;6.980;2024-02-15T13:20:19;9.10;;;4.38;;
52708;SDS011;38606;52.986;6.980;2024-02-15T13:22:52;7.05;;;4.25;;
52708;SDS011;38606;52.986;6.980;2024-02-15T13:25:19;6.60;;;4.35;;
52708;SDS011;38606;52.986;6.980;2024-02-15T13:27:46;5.90;;;4.63;;
52708;SDS011;38606;52.986;6.980;2024-02-15T13:30:12;6.03;;;4.05;;
52708;SDS011;38606;52.986;6.980;2024-02-15T13:32:38;5.57;;;4.18;;
52708;SDS011;38606;52.986;6.980;2024-02-15T13:35:09;5.45;;;4.30;;
52708;SDS011;38606;52.986;6.980;2024-02-15T13:40:13;7.05;;;4.25;;
52708;SDS011;38606;52.986;6.980;2024-02-15T13:42:42;6.85;;;4.60;;
52708;SDS011;38606;52.986;6.980;2024-02-15T13:45:21;7.32;;;4.75;;
52708;SDS011;38606;52.986;6.980;2024-02-15T13:47:48;10.63;;;5.82;;
52708;SDS011;38606;52.986;6.980;2024-02-15T13:50:15;8.50;;;5.00;;
52708;SDS011;38606;52.986;6.980;2024-02-15T13:52:42;10.38;;;5.55;;
52708;SDS011;38606;52.986;6.980;2024-02-15T13:55:16;7.72;;;5.25;;
52708;SDS011;38606;52.986;6.980;2024-02-15T13:57:44;12.30;;;5.97;;
52708;SDS011;38606;52.986;6.980;2024-02-15T14:00:12;7.78;;;5.57;;
52708;SDS011;38606;52.986;6.980;2024-02-15T14:02:51;10.65;;;5.97;;
52708;SDS011;38606;52.986;6.980;2024-02-15T14:05:18;11.32;;;6.45;;
52708;SDS011;38606;52.986;6.980;2024-02-15T14:07:48;11.27;;;5.68;;
52708;SDS011;38606;52.986;6.980;2024-02-15T14:10:15;12.32;;;6.47;;
52708;SDS011;38606;52.986;6.980;2024-02-15T14:12:44;13.95;;;6.57;;
52708;SDS011;38606;52.986;6.980;2024-02-15T14:15:11;11.75;;;6.57;;
52708;SDS011;38606;52.986;6.980;2024-02-15T14:17:37;12.10;;;7.65;;
52708;SDS011;38606;52.986;6.980;2024-02-15T14:20:03;13.32;;;7.68;;
52708;SDS011;38606;52.986;6.980;2024-02-15T14:22:34;17.33;;;7.85;;
52708;SDS011;38606;52.986;6.980;2024-02-15T14:25:00;10.88;;;7.05;;
52708;SDS011;38606;52.986;6.980;2024-02-15T14:27:26;9.20;;;6.72;;
52708;SDS011;38606;52.986;6.980;2024-02-15T14:29:52;11.02;;;7.13;;
52708;SDS011;38606;52.986;6.980;2024-02-15T14:32:36;10.63;;;7.93;;
52708;SDS011;38606;52.986;6.980;2024-02-15T14:35:20;13.20;;;8.77;;
52708;SDS011;38606;52.986;6.980;2024-02-15T14:37:46;13.25;;;8.82;;
52708;SDS011;38606;52.986;6.980;2024-02-15T14:40:12;18.67;;;8.98;;
52708;SDS011;38606;52.986;6.980;2024-02-15T14:42:42;17.23;;;8.93;;
52708;SDS011;38606;52.986;6.980;2024-02-15T14:45:11;16.08;;;9.52;;
52708;SDS011;38606;52.986;6.980;2024-02-15T14:47:37;17.92;;;9.32;;
52708;SDS011;38606;52.986;6.980;2024-02-15T14:50:04;15.38;;;9.73;;
52708;SDS011;38606;52.986;6.980;2024-02-15T14:52:36;14.70;;;9.65;;
52708;SDS011;38606;52.986;6.980;2024-02-15T14:55:05;19.85;;;10.35;;
52708;SDS011;38606;52.986;6.980;2024-02-15T14:57:35;15.98;;;10.43;;
52708;SDS011;38606;52.986;6.980;2024-02-15T15:00:04;15.00;;;9.82;;
52708;SDS011;38606;52.986;6.980;2024-02-15T15:02:36;14.35;;;9.20;;
52708;SDS011;38606;52.986;6.980;2024-02-15T15:05:02;16.35;;;10.45;;
52708;SDS011;38606;52.986;6.980;2024-02-15T15:07:47;16.65;;;9.65;;
52708;SDS011;38606;52.986;6.980;2024-02-15T15:10:31;18.35;;;9.68;;
52708;SDS011;38606;52.986;6.980;2024-02-15T15:13:15;17.83;;;10.63;;
52708;SDS011;38606;52.986;6.980;2024-02-15T15:15:42;19.75;;;10.07;;
52708;SDS011;38606;52.986;6.980;2024-02-15T15:18:08;17.20;;;10.13;;
52708;SDS011;38606;52.986;6.980;2024-02-15T15:20:34;19.60;;;10.57;;
52708;SDS011;38606;52.986;6.980;2024-02-15T15:23:01;16.13;;;10.02;;
52708;SDS011;38606;52.986;6.980;2024-02-15T15:25:27;16.55;;;10.63;;
52708;SDS011;38606;52.986;6.980;2024-02-15T15:27:54;16.33;;;9.55;;
52708;SDS011;38606;52.986;6.980;2024-02-15T15:30:20;18.67;;;9.85;;
52708;SDS011;38606;52.986;6.980;2024-02-15T15:32:48;17.95;;;9.10;;
52708;SDS011;38606;52.986;6.980;2024-02-15T15:35:15;20.08;;;9.98;;
52708;SDS011;38606;52.986;6.980;2024-02-15T15:37:43;18.48;;;10.05;;
52708;SDS011;38606;52.986;6.980;2024-02-15T15:40:12;16.88;;;9.68;;
52708;SDS011;38606;52.986;6.980;2024-02-15T15:42:41;15.98;;;9.48;;
52708;SDS011;38606;52.986;6.980;2024-02-15T15:45:08;18.15;;;9.35;;
52708;SDS011;38606;52.986;6.980;2024-02-15T15:47:35;15.55;;;9.13;;
52708;SDS011;38606;52.986;6.980;2024-02-15T15:50:01;16.98;;;9.15;;
52708;SDS011;38606;52.986;6.980;2024-02-15T15:52:27;14.48;;;9.10;;
52708;SDS011;38606;52.986;6.980;2024-02-15T15:54:53;16.60;;;8.93;;